createdAt,value
2022-08-11T00:01:53.232Z,2.40
2022-08-11T00:04:23.726Z,2.80
2022-08-11T00:06:52.062Z,2.90
2022-08-11T00:09:21.436Z,2.63
2022-08-11T00:11:58.823Z,2.70
2022-08-11T00:14:36.815Z,3.03
2022-08-11T00:17:10.757Z,2.70
2022-08-11T00:20:12.026Z,2.88
2022-08-11T00:22:28.346Z,3.08
2022-08-11T00:25:00.020Z,2.67
2022-08-11T00:27:36.546Z,2.63
2022-08-11T00:30:05.597Z,3.08
2022-08-11T00:32:32.580Z,3.08
2022-08-11T00:35:55.701Z,3.35
2022-08-11T00:37:50.374Z,2.78
2022-08-11T00:40:34.553Z,2.80
2022-08-11T00:43:21.348Z,3.05
2022-08-11T00:46:14.833Z,3.08
2022-08-11T00:48:50.291Z,3.03
2022-08-11T00:52:02.102Z,3.17
2022-08-11T00:54:59.965Z,3.30
2022-08-11T00:57:45.151Z,2.95
2022-08-11T01:00:22.654Z,3.15
2022-08-11T01:03:18.610Z,2.63
2022-08-11T01:06:17.357Z,2.97
2022-08-11T01:09:23.003Z,3.38
2022-08-11T01:12:14.373Z,3.08
2022-08-11T01:15:20.508Z,2.97
2022-08-11T01:18:08.707Z,3.30
2022-08-11T01:21:05.931Z,2.80
2022-08-11T01:23:59.944Z,3.00
2022-08-11T01:26:58.103Z,3.25
2022-08-11T01:29:55.515Z,3.13
2022-08-11T01:32:59.208Z,3.05
2022-08-11T01:35:44.561Z,2.80
2022-08-11T01:38:45.483Z,3.40
2022-08-11T01:41:50.964Z,3.20
2022-08-11T01:44:42.367Z,3.45
2022-08-11T01:47:54.318Z,3.53
2022-08-11T01:50:37.144Z,3.50
2022-08-11T01:53:12.691Z,3.90
2022-08-11T01:56:04.799Z,2.90
2022-08-11T01:58:50.100Z,3.22
2022-08-11T02:01:41.196Z,3.30
2022-08-11T02:04:25.786Z,3.90
2022-08-11T02:07:10.265Z,3.60
2022-08-11T02:10:00.717Z,3.33
2022-08-11T02:12:51.182Z,3.20
2022-08-11T02:18:18.400Z,2.60
2022-08-11T02:21:27.170Z,3.15
2022-08-11T02:24:08.079Z,3.15
2022-08-11T02:29:32.441Z,3.22
2022-08-11T02:32:30.648Z,3.50
2022-08-11T02:35:28.067Z,3.30
2022-08-11T02:38:11.542Z,3.15
2022-08-11T02:41:31.163Z,2.90
2022-08-11T02:44:16.365Z,3.72
2022-08-11T02:47:06.959Z,3.60
2022-08-11T02:50:06.278Z,3.00
2022-08-11T02:52:59.093Z,3.20
2022-08-11T02:55:58.360Z,3.90
2022-08-11T02:58:42.115Z,4.22
2022-08-11T03:01:28.360Z,2.83
2022-08-11T03:04:05.609Z,3.28
2022-08-11T03:06:58.372Z,3.42
2022-08-11T03:09:54.219Z,3.53
2022-08-11T03:12:53.142Z,3.20
2022-08-11T03:15:46.082Z,3.58
2022-08-11T03:18:27.441Z,3.95
2022-08-11T03:21:06.171Z,4.45
2022-08-11T03:23:58.439Z,3.55
2022-08-11T03:27:03.493Z,4.22
2022-08-11T03:29:37.622Z,3.13
2022-08-11T03:32:29.863Z,3.35
2022-08-11T03:35:01.375Z,3.65
2022-08-11T03:37:51.674Z,3.78
2022-08-11T03:40:59.406Z,3.67
2022-08-11T03:43:58.337Z,3.47
2022-08-11T03:46:46.794Z,3.80
2022-08-11T03:50:02.371Z,3.30
2022-08-11T03:52:53.575Z,3.40
2022-08-11T03:58:15.848Z,3.90
2022-08-11T04:01:20.173Z,3.58
2022-08-11T04:04:15.118Z,3.45
2022-08-11T04:07:17.672Z,3.72
2022-08-11T04:10:12.510Z,3.70
2022-08-11T04:13:13.004Z,3.42
2022-08-11T04:16:11.928Z,3.50
2022-08-11T04:19:16.711Z,3.90
2022-08-11T04:21:57.305Z,3.75
2022-08-11T04:24:49.739Z,3.65
2022-08-11T04:27:54.214Z,3.67
2022-08-11T04:30:57.928Z,3.92
2022-08-11T04:33:59.713Z,3.67
2022-08-11T04:37:17.405Z,4.03
2022-08-11T04:40:12.203Z,4.43
2022-08-11T04:43:21.315Z,3.83
2022-08-11T04:45:53.364Z,3.80
2022-08-11T04:49:07.482Z,3.58
2022-08-11T04:52:37.941Z,3.45
2022-08-11T04:55:44.741Z,3.58
2022-08-11T04:58:51.770Z,3.60
2022-08-11T05:01:55.458Z,4.43
2022-08-11T05:05:10.686Z,3.97
2022-08-11T05:07:55.304Z,3.65
2022-08-11T05:10:48.315Z,3.80
2022-08-11T05:13:49.112Z,3.60
2022-08-11T05:16:40.405Z,3.38
2022-08-11T05:22:14.913Z,3.58
2022-08-11T05:25:04.630Z,4.88
2022-08-11T05:27:59.179Z,8.50
2022-08-11T05:30:47.315Z,7.13
2022-08-11T05:33:41.869Z,4.50
2022-08-11T05:36:27.927Z,4.13
2022-08-11T05:39:36.444Z,3.92
2022-08-11T05:42:30.328Z,3.95
2022-08-11T05:46:02.461Z,4.32
2022-08-11T05:48:37.362Z,3.80
2022-08-11T05:51:30.597Z,4.03
2022-08-11T05:54:28.120Z,4.85
2022-08-11T05:56:59.554Z,4.15
2022-08-11T05:59:28.419Z,4.30
2022-08-11T06:02:01.302Z,4.53
2022-08-11T06:04:29.119Z,4.03
2022-08-11T06:07:01.544Z,4.35
2022-08-11T06:09:33.803Z,3.85
2022-08-11T06:12:04.509Z,4.38
2022-08-11T06:14:32.736Z,4.38
2022-08-11T06:17:02.798Z,3.92
2022-08-11T06:19:42.613Z,3.80
2022-08-11T06:22:11.936Z,4.32
2022-08-11T06:24:41.733Z,3.97
2022-08-11T06:27:12.685Z,3.83
2022-08-11T06:29:54.441Z,4.00
2022-08-11T06:32:44.695Z,3.88
2022-08-11T06:35:26.652Z,3.83
2022-08-11T06:37:59.229Z,4.22
2022-08-11T06:41:06.565Z,4.22
2022-08-11T06:43:55.914Z,4.07
2022-08-11T06:46:37.188Z,4.03
2022-08-11T06:49:04.165Z,3.53
2022-08-11T06:51:32.479Z,3.90
2022-08-11T06:54:04.514Z,4.20
2022-08-11T06:57:29.858Z,4.07
2022-08-11T07:00:04.381Z,3.92
2022-08-11T07:02:34.426Z,4.13
2022-08-11T07:05:14.995Z,4.25
2022-08-11T07:08:49.909Z,3.83
2022-08-11T07:11:57.561Z,4.10
2022-08-11T07:14:45.501Z,4.65
2022-08-11T07:17:17.647Z,3.90
2022-08-11T07:20:10.034Z,4.43
2022-08-11T07:22:55.635Z,3.72
2022-08-11T07:25:43.366Z,4.15
2022-08-11T07:28:36.324Z,4.03
2022-08-11T07:31:14.193Z,3.53
2022-08-11T07:34:07.377Z,4.68
2022-08-11T07:36:42.758Z,3.75
2022-08-11T07:39:17.614Z,3.88
2022-08-11T07:41:45.654Z,3.70
2022-08-11T07:44:13.678Z,4.22
2022-08-11T07:47:01.413Z,3.90
2022-08-11T07:49:49.560Z,3.72
2022-08-11T07:52:35.270Z,4.20
2022-08-11T07:55:05.366Z,3.83
2022-08-11T07:58:16.163Z,3.45
2022-08-11T08:01:01.696Z,3.55
2022-08-11T08:03:54.368Z,3.70
2022-08-11T08:06:41.569Z,3.42
2022-08-11T08:09:27.828Z,3.72
2022-08-11T08:12:14.073Z,3.50
2022-08-11T08:15:01.264Z,3.55
2022-08-11T08:18:09.106Z,3.63
2022-08-11T08:20:46.044Z,3.30
2022-08-11T08:23:13.278Z,3.85
2022-08-11T08:25:43.141Z,3.33
2022-08-11T08:28:14.698Z,3.65
2022-08-11T08:30:50.627Z,3.33
2022-08-11T08:33:20.743Z,3.03
2022-08-11T08:35:54.466Z,3.55
2022-08-11T08:38:23.195Z,3.08
2022-08-11T08:40:55.784Z,2.97
2022-08-11T08:43:24.010Z,3.00
2022-08-11T08:45:55.699Z,3.67
2022-08-11T08:48:25.785Z,3.13
2022-08-11T08:51:19.256Z,3.45
2022-08-11T08:53:53.281Z,3.15
2022-08-11T08:56:28.217Z,3.60
2022-08-11T08:58:57.931Z,3.03
2022-08-11T09:01:29.317Z,3.43
2022-08-11T09:04:07.076Z,3.45
2022-08-11T09:06:40.078Z,2.75
2022-08-11T09:09:12.323Z,3.25
2022-08-11T09:11:53.563Z,3.13
2022-08-11T09:14:23.291Z,3.10
2022-08-11T09:16:51.336Z,2.67
2022-08-11T09:19:20.263Z,2.88
2022-08-11T09:22:11.546Z,2.70
2022-08-11T09:24:58.418Z,2.88
2022-08-11T09:27:26.471Z,2.97
2022-08-11T09:29:54.019Z,2.88
2022-08-11T09:32:23.979Z,2.78
2022-08-11T09:34:52.182Z,2.90
2022-08-11T09:37:55.582Z,3.55
2022-08-11T09:40:30.742Z,3.10
2022-08-11T09:43:18.108Z,2.30
2022-08-11T09:45:51.323Z,3.08
2022-08-11T09:48:19.582Z,3.00
2022-08-11T09:50:49.862Z,2.95
2022-08-11T09:56:25.261Z,3.15
2022-08-11T09:58:52.196Z,2.95
2022-08-11T10:01:29.689Z,2.85
2022-08-11T10:04:00.982Z,2.50
2022-08-11T10:06:48.538Z,2.63
2022-08-11T10:09:21.895Z,2.63
2022-08-11T10:11:58.192Z,3.00
2022-08-11T10:14:45.173Z,3.00
2022-08-11T10:17:14.610Z,2.88
2022-08-11T10:19:43.415Z,3.05
2022-08-11T10:22:28.559Z,3.38
2022-08-11T10:25:19.846Z,2.80
2022-08-11T10:28:17.656Z,2.85
2022-08-11T10:31:06.820Z,3.08
2022-08-11T10:33:59.655Z,3.35
2022-08-11T10:36:44.256Z,2.75
2022-08-11T10:39:17.198Z,3.17
2022-08-11T10:42:25.776Z,2.65
2022-08-11T10:45:25.261Z,2.47
2022-08-11T10:47:55.063Z,3.03
2022-08-11T10:50:40.895Z,3.05
2022-08-11T10:53:26.332Z,2.33
2022-08-11T10:56:11.938Z,3.67
2022-08-11T10:58:51.282Z,3.28
2022-08-11T11:01:31.869Z,3.00
2022-08-11T11:04:01.830Z,2.42
2022-08-11T11:06:44.720Z,2.75
2022-08-11T11:09:32.418Z,3.13
2022-08-11T11:12:25.742Z,2.97
2022-08-11T11:15:17.504Z,2.90
2022-08-11T11:20:45.028Z,2.75
2022-08-11T11:23:20.013Z,3.03
2022-08-11T11:26:10.613Z,3.22
2022-08-11T11:28:54.645Z,2.83
2022-08-11T11:31:45.869Z,2.92
2022-08-11T11:34:52.821Z,2.88
2022-08-11T11:37:20.889Z,2.72
2022-08-11T11:39:47.969Z,3.03
2022-08-11T11:42:16.514Z,2.67
2022-08-11T11:44:44.922Z,2.45
2022-08-11T11:47:12.666Z,2.70
2022-08-11T11:49:43.772Z,2.65
2022-08-11T11:52:17.163Z,3.08
2022-08-11T11:54:43.923Z,2.67
2022-08-11T11:57:33.331Z,2.67
2022-08-11T12:00:18.567Z,2.35
2022-08-11T12:02:45.321Z,2.50
2022-08-11T12:05:14.801Z,2.85
2022-08-11T12:08:12.445Z,2.67
2022-08-11T12:10:43.380Z,2.83
2022-08-11T12:13:28.701Z,2.70
2022-08-11T12:16:31.638Z,3.08
2022-08-11T12:18:43.650Z,2.90
2022-08-11T12:21:10.595Z,3.03
2022-08-11T12:24:02.277Z,3.53
2022-08-11T12:27:02.782Z,3.05
2022-08-11T12:29:36.506Z,3.10
2022-08-11T12:32:08.679Z,3.50
2022-08-11T12:34:35.486Z,2.83
2022-08-11T12:37:05.666Z,2.42
2022-08-11T12:40:16.867Z,2.80
2022-08-11T12:43:03.897Z,2.95
2022-08-11T12:45:31.573Z,3.28
2022-08-11T12:48:59.298Z,2.83
2022-08-11T12:51:30.025Z,3.25
2022-08-11T12:54:12.823Z,2.85
2022-08-11T12:57:02.219Z,2.92
2022-08-11T12:59:48.255Z,2.67
2022-08-11T13:02:43.919Z,2.80
2022-08-11T13:05:13.659Z,3.20
2022-08-11T13:07:50.833Z,3.25
2022-08-11T13:10:39.460Z,2.83
2022-08-11T13:13:55.406Z,3.08
2022-08-11T13:15:55.811Z,3.03
2022-08-11T13:18:24.923Z,2.72
2022-08-11T13:20:55.868Z,2.15
2022-08-11T13:23:24.586Z,3.20
2022-08-11T13:25:54.072Z,3.22
2022-08-11T13:28:22.416Z,3.20
2022-08-11T13:31:10.779Z,3.45
2022-08-11T13:33:49.843Z,2.80
2022-08-11T13:36:20.539Z,3.20
2022-08-11T13:38:50.173Z,3.00
2022-08-11T13:41:37.043Z,3.20
2022-08-11T13:44:05.380Z,3.03
2022-08-11T13:46:32.551Z,2.63
2022-08-11T13:49:01.002Z,3.40
2022-08-11T13:51:34.337Z,3.00
2022-08-11T13:54:10.980Z,2.92
2022-08-11T13:56:44.097Z,3.25
2022-08-11T13:59:10.729Z,2.58
2022-08-11T14:02:19.352Z,2.70
2022-08-11T14:04:40.273Z,2.83
2022-08-11T14:07:09.072Z,2.80
2022-08-11T14:09:39.480Z,2.97
2022-08-11T14:12:31.084Z,2.90
2022-08-11T14:15:08.568Z,2.53
2022-08-11T14:17:48.234Z,2.95
2022-08-11T14:23:04.296Z,2.83
2022-08-11T14:25:59.464Z,2.95
2022-08-11T14:28:30.905Z,3.05
2022-08-11T14:31:02.721Z,2.88
2022-08-11T14:34:00.947Z,2.72
2022-08-11T14:36:20.526Z,2.83
2022-08-11T14:38:48.418Z,2.67
2022-08-11T14:41:34.529Z,2.80
2022-08-11T14:44:20.218Z,3.25
2022-08-11T14:47:05.836Z,2.83
2022-08-11T14:50:05.056Z,2.67
2022-08-11T14:52:43.228Z,2.67
2022-08-11T14:55:29.453Z,2.92
2022-08-11T14:57:57.023Z,2.40
2022-08-11T15:00:24.801Z,2.65
2022-08-11T15:03:10.685Z,2.53
2022-08-11T15:05:59.969Z,2.70
2022-08-11T15:08:53.567Z,2.63
2022-08-11T15:11:41.992Z,2.92
2022-08-11T15:14:11.202Z,2.85
2022-08-11T15:17:00.528Z,2.20
2022-08-11T15:19:37.494Z,2.60
2022-08-11T15:22:28.161Z,2.67
2022-08-11T15:24:55.697Z,2.75
2022-08-11T15:27:42.647Z,2.13
2022-08-11T15:30:33.665Z,2.80
2022-08-11T15:33:27.902Z,2.88
2022-08-11T15:36:15.296Z,2.33
2022-08-11T15:38:55.325Z,1.88
2022-08-11T15:44:58.860Z,2.40
2022-08-11T15:47:22.939Z,2.00
2022-08-11T15:50:11.003Z,2.25
2022-08-11T15:52:48.134Z,2.47
2022-08-11T15:55:16.450Z,2.55
2022-08-11T15:58:03.136Z,2.35
2022-08-11T16:00:48.456Z,1.90
2022-08-11T16:04:05.854Z,2.35
2022-08-11T16:06:27.225Z,1.80
2022-08-11T16:08:58.120Z,1.98
2022-08-11T16:11:26.570Z,1.95
2022-08-11T16:14:12.814Z,1.80
2022-08-11T16:16:40.455Z,2.35
2022-08-11T16:19:10.450Z,2.17
2022-08-11T16:21:40.088Z,2.03
2022-08-11T16:24:08.281Z,2.00
2022-08-11T16:27:10.520Z,2.20
2022-08-11T16:29:26.616Z,1.92
2022-08-11T16:32:14.415Z,2.03
2022-08-11T16:35:02.421Z,2.47
2022-08-11T16:37:49.603Z,1.63
2022-08-11T16:40:17.271Z,1.98
2022-08-11T16:43:10.717Z,1.85
2022-08-11T16:45:59.230Z,2.00
2022-08-11T16:48:33.086Z,1.60
2022-08-11T16:51:05.925Z,1.58
2022-08-11T16:53:54.944Z,1.60
2022-08-11T16:56:23.208Z,1.85
2022-08-11T16:59:15.171Z,1.60
2022-08-11T17:01:45.160Z,1.90
2022-08-11T17:04:54.640Z,1.80
2022-08-11T17:07:43.180Z,1.73
2022-08-11T17:10:50.421Z,2.05
2022-08-11T17:13:23.681Z,1.77
2022-08-11T17:16:07.107Z,1.92
2022-08-11T17:18:40.181Z,2.00
2022-08-11T17:21:12.683Z,1.73
2022-08-11T17:23:52.551Z,1.52
2022-08-11T17:26:23.008Z,1.73
2022-08-11T17:31:40.155Z,2.05
2022-08-11T17:34:26.999Z,1.73
2022-08-11T17:36:55.112Z,1.58
2022-08-11T17:39:25.239Z,1.48
2022-08-11T17:42:11.474Z,1.88
2022-08-11T17:44:58.421Z,1.52
2022-08-11T17:47:44.447Z,1.42
2022-08-11T17:50:17.848Z,1.90
2022-08-11T17:53:05.449Z,2.03
2022-08-11T17:55:53.569Z,1.90
2022-08-11T17:58:40.334Z,1.27
2022-08-11T18:01:10.873Z,1.75
2022-08-11T18:06:12.903Z,1.50
2022-08-11T18:09:03.195Z,1.27
2022-08-11T18:12:07.426Z,1.77
2022-08-11T18:14:58.977Z,1.45
2022-08-11T18:17:43.816Z,1.55
2022-08-11T18:20:29.152Z,1.70
2022-08-11T18:23:16.367Z,1.50
2022-08-11T18:26:06.459Z,1.45
2022-08-11T18:29:01.579Z,1.63
2022-08-11T18:31:51.971Z,1.45
2022-08-11T18:34:42.875Z,1.63
2022-08-11T18:37:46.070Z,1.63
2022-08-11T18:40:38.159Z,1.58
2022-08-11T18:43:27.895Z,1.40
2022-08-11T18:46:23.342Z,1.45
2022-08-11T18:49:16.493Z,1.70
2022-08-11T18:52:06.360Z,1.38
2022-08-11T18:54:55.124Z,1.60
2022-08-11T18:57:49.473Z,1.70
2022-08-11T19:00:40.687Z,1.60
2022-08-11T19:03:26.892Z,1.63
2022-08-11T19:06:40.032Z,1.40
2022-08-11T19:09:21.371Z,1.67
2022-08-11T19:12:08.045Z,1.60
2022-08-11T19:14:55.285Z,1.58
2022-08-11T19:17:45.950Z,1.42
2022-08-11T19:23:27.097Z,1.65
2022-08-11T19:26:12.755Z,1.65
2022-08-11T19:29:01.267Z,2.38
2022-08-11T19:31:47.980Z,1.77
2022-08-11T19:34:37.119Z,1.80
2022-08-11T19:37:25.311Z,2.20
2022-08-11T19:40:24.919Z,1.75
2022-08-11T19:43:11.287Z,1.98
2022-08-11T19:46:11.274Z,2.10
2022-08-11T19:48:57.206Z,2.00
2022-08-11T19:51:43.068Z,1.75
2022-08-11T19:54:29.247Z,1.60
2022-08-11T19:57:16.095Z,2.00
2022-08-11T20:00:02.090Z,1.95
2022-08-11T20:02:49.476Z,1.70
2022-08-11T20:05:34.842Z,2.17
2022-08-11T20:08:20.732Z,2.50
2022-08-11T20:11:06.877Z,2.03
2022-08-11T20:13:53.515Z,2.00
2022-08-11T20:16:41.483Z,2.00
2022-08-11T20:19:55.333Z,2.20
2022-08-11T20:22:36.659Z,2.20
2022-08-11T20:25:23.823Z,2.20
2022-08-11T20:28:12.147Z,2.13
2022-08-11T20:30:58.406Z,2.08
2022-08-11T20:33:43.887Z,2.10
2022-08-11T20:36:30.316Z,2.40
2022-08-11T20:39:17.079Z,2.40
2022-08-11T20:42:04.030Z,2.28
2022-08-11T20:44:51.763Z,2.65
2022-08-11T20:47:59.491Z,2.70
2022-08-11T20:50:45.938Z,2.33
2022-08-11T20:53:36.742Z,2.38
2022-08-11T20:56:28.541Z,2.63
2022-08-11T20:59:19.057Z,2.63
2022-08-11T21:02:09.467Z,2.05
2022-08-11T21:04:56.970Z,1.92
2022-08-11T21:07:50.273Z,2.25
2022-08-11T21:10:46.795Z,1.95
2022-08-11T21:13:33.202Z,2.40
2022-08-11T21:16:26.037Z,2.15
2022-08-11T21:19:17.852Z,2.00
2022-08-11T21:22:05.105Z,2.60
2022-08-11T21:24:51.875Z,2.55
2022-08-11T21:27:39.534Z,2.40
2022-08-11T21:30:25.422Z,2.25
2022-08-11T21:33:11.619Z,2.30
2022-08-11T21:35:56.792Z,2.25
2022-08-11T21:38:42.075Z,2.20
2022-08-11T21:41:28.982Z,2.53
2022-08-11T21:44:16.697Z,2.40
2022-08-11T21:47:03.147Z,2.67
2022-08-11T21:49:49.567Z,2.35
2022-08-11T21:52:35.138Z,2.17
2022-08-11T21:55:21.444Z,2.28
2022-08-11T21:58:07.467Z,2.65
2022-08-11T22:00:53.232Z,2.05
2022-08-11T22:03:41.107Z,2.40
2022-08-11T22:06:36.069Z,2.42
2022-08-11T22:09:21.159Z,2.70
2022-08-11T22:12:33.602Z,2.95
2022-08-11T22:15:11.819Z,2.45
2022-08-11T22:17:58.129Z,2.58
2022-08-11T22:20:45.546Z,2.72
2022-08-11T22:23:35.922Z,2.97
2022-08-11T22:26:22.370Z,2.80
2022-08-11T22:29:08.426Z,2.78
2022-08-11T22:31:56.047Z,2.55
2022-08-11T22:34:52.795Z,2.65
2022-08-11T22:37:41.151Z,2.35
2022-08-11T22:40:28.569Z,2.97
2022-08-11T22:43:13.693Z,2.70
2022-08-11T22:45:58.854Z,2.58
2022-08-11T22:48:48.440Z,4.43
2022-08-11T22:51:36.534Z,3.55
2022-08-11T22:54:22.715Z,2.83
2022-08-11T22:57:08.368Z,2.75
2022-08-11T22:59:55.272Z,2.90
2022-08-11T23:02:41.198Z,2.72
2022-08-11T23:05:27.653Z,3.35
2022-08-11T23:08:15.305Z,3.13
2022-08-11T23:11:02.400Z,3.05
2022-08-11T23:13:51.805Z,3.20
2022-08-11T23:16:38.267Z,3.25
2022-08-11T23:20:06.669Z,3.35
2022-08-11T23:22:37.742Z,3.38
2022-08-11T23:25:34.642Z,3.10
2022-08-11T23:28:20.994Z,2.75
2022-08-11T23:31:09.695Z,3.25
2022-08-11T23:33:58.538Z,3.20
2022-08-11T23:36:47.382Z,3.55
2022-08-11T23:39:34.177Z,3.40
2022-08-11T23:42:20.115Z,2.80
2022-08-11T23:45:05.590Z,3.03
2022-08-11T23:47:56.369Z,3.95
2022-08-11T23:50:42.099Z,2.33
2022-08-11T23:53:28.063Z,3.05
2022-08-11T23:56:13.794Z,2.95
2022-08-11T23:58:59.693Z,2.75
